Latest Coastal Weather Observations for Maningrida Airport

IDD60701

Issued at 7:25 am CST Thursday 17 April 2014 (issued every 10 minutes, with the page automatically refreshed every 10 minutes)

About coastal observations | Map of coastal stations | Coastal observations for NT | Marine services | Other Formats
Station Details ID: 014405 Name: MANINGRIDA AIRPORT Lat: -12.06 Lon: 134.23 Height: 28.1 m
Data from the previous 72 hours. | See also: Recent months at Maningrida Airport
Date/Time
CST
Temp

°C
Wind Pressure Rain
since 9am
mm
Weather Cloud Vis
km
Sea
Height
m
Swell
Dir
 
Speed
knots
Gust
knots
hPa Trend Height
m
Period
s
Dir
17/07:00am 24.7 SSE 5 7 1010.3 - - - Partly cloudy 10 - - - -
17/06:30am 24.5 SSE 6 7 1009.8 - - - Partly cloudy 10 - - - -
17/06:00am 24.5 SSE 6 7 1009.4 - - - - 10 - - - -
17/05:30am 24.5 SE 6 6 1009.1 - - - - 10 - - - -
17/05:00am 24.5 SSE 5 6 1009.0 - - - - 10 - - - -
17/04:30am 24.3 SSE 4 5 1009.0 - - - - 10 - - - -
17/04:00am 24.5 S 4 5 1008.9 - - - - 10 - - - -
17/03:30am 24.7 S 4 6 1008.9 - - - - 10 - - - -
17/03:00am 24.9 S 4 5 1008.8 - - - - 10 - - - -
17/02:30am 25.2 S 4 5 1009.1 - - - - 10 - - - -
17/02:00am 25.5 SSE 4 5 1009.4 - - - - 10 - - - -
17/01:30am 25.5 SSE 5 6 1009.6 - - - Partly cloudy 10 - - - -
17/01:00am 25.9 SSE 4 5 1009.9 - - - - 10 - - - -
17/12:30am 25.8 SE 6 7 1010.3 - - - Partly cloudy 10 - - - -
17/12:00am 25.9 SSE 5 6 1010.4 - - - - 10 - - - -
 
Date/Time
CST
Temp

°C
Wind Pressure Rain
since 9am
mm
Weather Cloud Vis
km
Sea
Height
m
Swell
Dir
 
Speed
knots
Gust
knots
hPa Trend Height
m
Period
s
Dir
16/11:30pm 25.8 SSE 4 5 1010.4 - - - - 10 - - - -
16/11:00pm 25.9 SE 3 4 1010.2 - - - - 10 - - - -
16/10:30pm 26.2 CALM 0 0 1010.2 - - - - 10 - - - -
16/10:00pm 26.7 CALM 0 0 1010.0 - - - - 10 - - - -
16/09:30pm 26.9 CALM 0 0 1009.9 - - - - 10 - - - -
16/09:00pm 27.6 ENE 2 3 1009.4 - - - - 10 - - - -
16/08:30pm 27.8 ENE 3 4 1009.2 - - - - 10 - - - -
16/08:00pm 28.1 NNE 3 4 1008.9 - - - - 10 - - - -
16/07:30pm 28.5 NNE 3 4 1008.6 - - - - 10 - - - -
16/07:00pm 28.8 NE 3 4 1008.3 - - - - 10 - - - -
16/06:30pm 29.3 NNE 5 8 1008.2 - - - - 10 - - - -
16/06:00pm 29.9 NNE 6 8 1007.8 - - - Mostly cloudy 10 - - - -
16/05:30pm 30.2 NNE 6 10 1007.6 - - - Partly cloudy 10 - - - -
16/05:00pm 30.4 NNE 8 12 1007.5 - - - - 10 - - - -
16/04:30pm 30.6 NNE 9 11 1007.4 - - - - 10 - - - -
16/04:00pm 31.1 N 8 11 1007.2 - - - - 10 - - - -
16/03:30pm 31.4 N 7 9 1007.3 - - - - 10 - - - -
16/03:00pm 31.1 N 9 11 1007.3 - - - Mostly clear 10 - - - -
16/02:30pm 31.8 N 8 11 1007.6 - - - - 10 - - - -
16/02:00pm 32.3 N 9 12 1007.9 - - - Partly cloudy 10 - - - -
16/01:30pm 32.5 N 5 9 1008.0 - - - Partly cloudy 10 - - - -
16/01:00pm 32.3 N 8 9 1008.4 - - - Partly cloudy 10 - - - -
16/12:30pm 31.5 NNE 5 9 1008.7 - - - Partly cloudy 10 - - - -
16/12:00pm 32.7 NW 6 8 1009.1 - - - Partly cloudy 10 - - - -
16/11:30am 32.2 NNW 6 8 1009.7 - - - Partly cloudy 10 - - - -
16/11:00am 31.3 NNW 5 8 1010.1 - - - Partly cloudy 10 - - - -
16/10:30am 31.4 N 5 7 1010.4 - - - - 10 - - - -
16/10:00am 31.0 NNW 3 7 1010.5 - 0.0 - - 10 - - - -
16/09:30am 29.7 - - - 1010.5 - 0.0 - Partly cloudy 10 - - - -
16/09:00am 29.2 - - - 1010.4 - 0.0 - - 10 - - - -
16/08:30am 27.9 - - - 1010.3 - 0.0 - - 10 - - - -
16/08:00am 26.5 - - - 1010.4 - 0.0 - - 10 - - - -
16/07:30am 25.4 - - - 1010.3 - 0.0 - Partly cloudy 10 - - - -
16/07:00am 24.8 - - - 1010.0 - 0.0 - Cloudy 10 - - - -
16/06:30am 24.6 - - - 1009.9 - 0.0 - Cloudy 10 - - - -
16/06:00am 24.6 - - - 1009.6 - 0.0 - Cloudy 10 - - - -
16/05:30am 24.6 - - - 1009.7 - 0.0 - Cloudy 10 - - - -
16/05:00am 24.6 - - - 1009.6 - 0.0 - Partly cloudy 10 - - - -
16/04:30am 24.7 - - - 1009.5 - 0.0 - - 10 - - - -
16/04:00am 24.8 - - - 1009.4 - 0.0 - - 10 - - - -
16/03:30am 25.0 - - - 1009.3 - 0.0 - - 10 - - - -
16/03:00am 25.1 - - - 1009.2 - 0.0 - - 10 - - - -
16/02:30am 25.2 - - - 1009.4 - 0.0 - - 10 - - - -
16/02:00am 25.3 - - - 1009.5 - 0.0 - - 10 - - - -
16/01:30am 25.4 - - - 1009.7 - 0.0 - - 10 - - - -
16/01:00am 25.6 - - - 1010.0 - 0.0 - - 10 - - - -
16/12:30am 25.9 - - - 1010.0 - 0.0 - - 10 - - - -
16/12:00am 27.0 - - - 1010.2 - 0.0 - - 10 - - - -
 
Date/Time
CST
Temp

°C
Wind Pressure Rain
since 9am
mm
Weather Cloud Vis
km
Sea
Height
m
Swell
Dir
 
Speed
knots
Gust
knots
hPa Trend Height
m
Period
s
Dir
15/11:30pm 27.3 - - - 1010.3 - 0.0 - - 10 - - - -
15/11:00pm 27.1 - - - 1010.3 - 0.0 - - 10 - - - -
15/10:30pm 27.5 - - - 1010.1 - 0.0 - - 10 - - - -
15/10:00pm 27.6 - - - 1010.2 - 0.0 - - 10 - - - -
15/09:30pm 27.5 - - - 1010.3 - 0.0 - - 10 - - - -
15/09:00pm 27.6 - - - 1010.0 - 0.0 - - 10 - - - -
15/08:30pm 27.7 - - - 1009.9 - 0.0 - - 10 - - - -
15/08:00pm 27.8 - - - 1009.6 - 0.0 - - 10 - - - -
15/07:30pm 28.1 - - - 1009.1 - 0.0 - - 10 - - - -
15/07:00pm 28.5 - - - 1008.7 - 0.0 - - 10 - - - -
15/06:30pm 29.1 - - - 1008.3 - 0.0 - - 10 - - - -
15/06:00pm 29.9 - - - 1008.1 - 0.0 - - 10 - - - -
15/05:30pm 30.7 - - - 1008.0 - 0.0 - - 10 - - - -
15/05:00pm 31.4 - - - 1008.0 - 0.0 - - 10 - - - -
15/04:30pm 32.3 - - - 1007.9 - 0.0 - Partly cloudy 10 - - - -
15/04:00pm 32.2 - - - 1007.9 - 0.0 - Cloudy 10 - - - -
15/03:30pm 32.3 - - - 1007.9 - 0.0 - Cloudy 10 - - - -
15/03:00pm 32.4 - - - 1007.9 - 0.0 - Cloudy 10 - - - -
15/02:30pm 32.9 - - - 1008.3 - 0.0 - Cloudy 10 - - - -
15/02:00pm 32.1 - - - 1008.4 - 0.0 - Cloudy 10 - - - -
15/01:30pm 31.8 - - - 1008.7 - 0.0 - Cloudy 10 - - - -
15/01:00pm 31.5 - - - 1009.2 - 0.0 - Cloudy 10 - - - -
15/12:30pm 31.1 - - - 1009.8 - 0.0 - Cloudy 10 - - - -
15/12:00pm 30.7 - - - 1010.2 - 0.0 - Cloudy 10 - - - -
15/11:30am 30.2 - - - 1010.9 - 0.0 - Cloudy 10 - - - -
15/11:00am 30.2 - - - 1011.3 - 0.0 - Cloudy 10 - - - -
15/10:30am 29.9 - - - 1011.2 - 0.0 - Cloudy 10 - - - -
15/10:00am 29.0 - - - 1011.4 - 0.0 - Cloudy 10 - - - -
15/09:30am 28.3 - - - 1011.4 - 0.0 - Partly cloudy 10 - - - -
15/09:00am 27.6 - - - 1011.3 - 0.0 - Mostly cloudy 10 - - - -
15/08:30am 27.1 - - - 1011.2 - 0.0 - Cloudy 10 - - - -
15/08:00am 26.4 - - - 1011.0 - 0.0 - Partly cloudy 10 - - - -
15/07:30am 25.9 - - - 1010.6 - 0.0 - Partly cloudy 10 - - - -
15/07:00am 25.2 - - - 1010.2 - 0.0 - Partly cloudy 10 - - - -
15/06:30am 25.4 - - - 1009.8 - 0.0 - Partly cloudy 10 - - - -
15/06:00am 25.6 - - - 1009.4 - 0.0 - Cloudy 10 - - - -
15/05:30am 25.9 - - - 1009.2 - 0.0 - Cloudy 10 - - - -
15/05:00am 25.7 - - - 1009.1 - 0.0 - Cloudy 10 - - - -
15/04:30am 26.0 - - - 1008.8 - 0.0 - Partly cloudy 10 - - - -
15/04:00am 24.8 - - - 1008.8 - 0.0 - Partly cloudy 10 - - - -
15/03:30am 24.8 - - - 1008.6 - 0.0 - Partly cloudy 10 - - - -
15/03:00am 24.9 - - - 1008.7 - 0.0 - - 10 - - - -
15/02:30am 25.2 - - - 1008.6 - 0.0 - - 10 - - - -
15/02:00am 25.8 - - - 1008.7 - 0.0 - Partly cloudy 10 - - - -
15/01:30am 26.2 - - - 1008.9 - 0.0 - Cloudy 10 - - - -
15/01:00am 26.3 - - - 1009.3 - 0.0 - Cloudy 10 - - - -
15/12:30am 26.5 - - - 1009.5 - 0.0 - Cloudy 10 - - - -
15/12:00am 26.6 - - - 1009.8 - 0.0 - Mostly cloudy 10 - - - -
 
Date/Time
CST
Temp

°C
Wind Pressure Rain
since 9am
mm
Weather Cloud Vis
km
Sea
Height
m
Swell
Dir
 
Speed
knots
Gust
knots
hPa Trend Height
m
Period
s
Dir
14/11:30pm 26.7 - - - 1010.0 - 0.0 - Cloudy 10 - - - -
14/11:00pm 26.9 - - - 1010.1 - 0.0 - Partly cloudy 10 - - - -
14/10:30pm 27.1 - - - 1010.2 - 0.0 - Cloudy 10 - - - -
14/10:00pm 27.2 - - - 1010.3 - 0.0 - Cloudy 10 - - - -
14/09:30pm 27.4 - - - 1010.3 - 0.0 - Cloudy 10 - - - -
14/09:00pm 27.3 - - - 1010.2 - 0.0 - Cloudy 10 - - - -
14/08:30pm 27.2 - - - 1010.2 - 0.0 - Partly cloudy 10 - - - -
14/08:00pm 27.3 - - - 1009.8 - 0.0 - Cloudy 10 - - - -
14/07:30pm 27.5 - - - 1009.1 - 0.0 - Cloudy 10 - - - -
14/07:00pm 28.1 - - - 1008.6 - 0.0 - Partly cloudy 10 - - - -
14/06:30pm 28.8 - - - 1008.3 - 0.0 - Partly cloudy 10 - - - -
14/06:00pm 29.3 - - - 1008.0 - 0.0 - Partly cloudy 10 - - - -
14/05:30pm 30.0 - - - 1007.8 - 0.0 - Partly cloudy 10 - - - -
14/05:00pm 30.2 - - - 1007.4 - 0.0 - Cloudy 10 - - - -
14/04:30pm 30.8 - - - 1007.2 - 0.0 - Partly cloudy 10 - - - -
14/04:00pm 31.6 - - - 1006.9 - 0.0 - - 10 - - - -
14/03:30pm 31.7 - - - 1006.9 - 0.0 - - 10 - - - -
14/03:00pm 31.9 - - - 1006.9 - 0.0 - - 10 - - - -
14/02:30pm 31.1 - - - 1007.3 - 0.0 - - 10 - - - -
14/02:00pm 30.9 - - - 1007.5 - 0.0 - - 10 - - - -
14/01:30pm 31.8 - - - 1007.9 - 0.0 - - 10 - - - -
14/01:00pm 31.9 - - - 1008.4 - 0.0 - - 10 - - - -
14/12:30pm 31.1 - - - 1008.9 - 0.0 - - 10 - - - -
14/12:00pm 31.7 - - - 1009.1 - 0.0 - Mostly clear 10 - - - -
14/11:30am 30.8 - - - 1009.8 - 0.0 - Partly cloudy 10 - - - -
14/11:00am 30.8 - - - 1010.2 - 0.0 - Partly cloudy 10 - - - -
14/10:30am 30.4 CALM 0 0 1010.5 - 0.0 - Partly cloudy 10 - - - -
14/10:00am 28.8 CALM 0 0 1010.5 - 0.0 - Cloudy 10 - - - -
14/09:30am 28.6 CALM 0 0 1010.5 - 0.0 - Cloudy 10 - - - -
14/09:00am 27.9 CALM 0 0 1010.2 - 0.2 - Cloudy 10 - - - -
14/08:30am 26.9 CALM 0 0 1010.2 - 0.2 - Cloudy 10 - - - -
14/08:00am 26.3 CALM 0 3 1010.1 - 0.2 - Partly cloudy 10 - - - -
14/07:30am 25.9 CALM 0 0 1009.9 - 0.2 - Partly cloudy 10 - - - -

Other Formats:

Comma delimited format used in spreadsheet applications
http://www.bom.gov.au/fwo/IDD60701/IDD60701.95142.axf

JavaScript Object Notation format (JSON) in row-major order
http://www.bom.gov.au/fwo/IDD60701/IDD60701.95142.json